sensor_id;sensor_type;location;lat;lon;timestamp;P1;durP1;ratioP1;P2;durP2;ratioP2
24325;SDS011;12448;45.532;5.290;2023-05-07T00:01:24;2.42;;;1.10;;
24325;SDS011;12448;45.532;5.290;2023-05-07T00:03:49;3.95;;;1.52;;
24325;SDS011;12448;45.532;5.290;2023-05-07T00:06:15;5.35;;;1.20;;
24325;SDS011;12448;45.532;5.290;2023-05-07T00:08:41;2.10;;;1.02;;
24325;SDS011;12448;45.532;5.290;2023-05-07T00:11:06;3.00;;;0.88;;
24325;SDS011;12448;45.532;5.290;2023-05-07T00:13:32;1.35;;;1.02;;
24325;SDS011;12448;45.532;5.290;2023-05-07T00:16:01;1.50;;;1.00;;
24325;SDS011;12448;45.532;5.290;2023-05-07T00:18:27;5.43;;;1.15;;
24325;SDS011;12448;45.532;5.290;2023-05-07T00:20:53;1.98;;;1.10;;
24325;SDS011;12448;45.532;5.290;2023-05-07T00:23:19;3.33;;;1.13;;
24325;SDS011;12448;45.532;5.290;2023-05-07T00:25:45;2.17;;;1.08;;
24325;SDS011;12448;45.532;5.290;2023-05-07T00:28:10;2.58;;;1.20;;
24325;SDS011;12448;45.532;5.290;2023-05-07T00:30:36;1.90;;;1.05;;
24325;SDS011;12448;45.532;5.290;2023-05-07T00:33:02;1.40;;;0.98;;
24325;SDS011;12448;45.532;5.290;2023-05-07T00:35:28;4.80;;;0.90;;
24325;SDS011;12448;45.532;5.290;2023-05-07T00:37:54;3.92;;;1.00;;
24325;SDS011;12448;45.532;5.290;2023-05-07T00:40:20;2.60;;;1.30;;
24325;SDS011;12448;45.532;5.290;2023-05-07T00:42:46;2.28;;;1.10;;
24325;SDS011;12448;45.532;5.290;2023-05-07T00:45:25;2.55;;;1.25;;
24325;SDS011;12448;45.532;5.290;2023-05-07T00:47:53;1.05;;;0.80;;
24325;SDS011;12448;45.532;5.290;2023-05-07T00:50:20;3.80;;;1.10;;
24325;SDS011;12448;45.532;5.290;2023-05-07T00:52:47;1.10;;;0.90;;
24325;SDS011;12448;45.532;5.290;2023-05-07T00:55:13;7.43;;;1.13;;
24325;SDS011;12448;45.532;5.290;2023-05-07T00:57:40;1.45;;;1.00;;
24325;SDS011;12448;45.532;5.290;2023-05-07T01:00:07;1.67;;;1.00;;
24325;SDS011;12448;45.532;5.290;2023-05-07T01:02:34;4.28;;;1.55;;
24325;SDS011;12448;45.532;5.290;2023-05-07T01:05:01;3.45;;;1.17;;
24325;SDS011;12448;45.532;5.290;2023-05-07T01:07:28;3.03;;;1.13;;
24325;SDS011;12448;45.532;5.290;2023-05-07T01:09:55;3.25;;;1.15;;
24325;SDS011;12448;45.532;5.290;2023-05-07T01:12:22;2.85;;;1.10;;
24325;SDS011;12448;45.532;5.290;2023-05-07T01:14:49;2.45;;;1.25;;
24325;SDS011;12448;45.532;5.290;2023-05-07T01:17:15;1.92;;;1.00;;
24325;SDS011;12448;45.532;5.290;2023-05-07T01:19:42;1.40;;;1.08;;
24325;SDS011;12448;45.532;5.290;2023-05-07T01:22:09;1.70;;;0.90;;
24325;SDS011;12448;45.532;5.290;2023-05-07T01:24:36;3.97;;;1.27;;
24325;SDS011;12448;45.532;5.290;2023-05-07T01:27:03;2.95;;;1.00;;
24325;SDS011;12448;45.532;5.290;2023-05-07T01:29:29;3.60;;;1.30;;
24325;SDS011;12448;45.532;5.290;2023-05-07T01:31:56;4.57;;;1.38;;
24325;SDS011;12448;45.532;5.290;2023-05-07T01:34:24;3.38;;;1.08;;
24325;SDS011;12448;45.532;5.290;2023-05-07T01:36:52;2.83;;;1.00;;
24325;SDS011;12448;45.532;5.290;2023-05-07T01:39:26;3.47;;;1.20;;
24325;SDS011;12448;45.532;5.290;2023-05-07T01:41:56;2.08;;;1.02;;
24325;SDS011;12448;45.532;5.290;2023-05-07T01:44:24;2.17;;;1.20;;
24325;SDS011;12448;45.532;5.290;2023-05-07T01:46:53;3.05;;;1.20;;
24325;SDS011;12448;45.532;5.290;2023-05-07T01:49:20;1.23;;;1.10;;
24325;SDS011;12448;45.532;5.290;2023-05-07T01:51:51;4.47;;;1.10;;
24325;SDS011;12448;45.532;5.290;2023-05-07T01:54:17;1.58;;;1.08;;
24325;SDS011;12448;45.532;5.290;2023-05-07T01:56:43;3.58;;;1.02;;
24325;SDS011;12448;45.532;5.290;2023-05-07T01:59:09;2.60;;;0.98;;
24325;SDS011;12448;45.532;5.290;2023-05-07T02:01:34;1.90;;;0.90;;
24325;SDS011;12448;45.532;5.290;2023-05-07T02:04:00;1.73;;;0.90;;
24325;SDS011;12448;45.532;5.290;2023-05-07T02:06:26;3.08;;;1.20;;
24325;SDS011;12448;45.532;5.290;2023-05-07T02:08:51;2.92;;;0.93;;
24325;SDS011;12448;45.532;5.290;2023-05-07T02:11:17;1.90;;;1.10;;
24325;SDS011;12448;45.532;5.290;2023-05-07T02:13:43;4.68;;;1.38;;
24325;SDS011;12448;45.532;5.290;2023-05-07T02:16:35;2.80;;;1.13;;
24325;SDS011;12448;45.532;5.290;2023-05-07T02:19:01;2.00;;;1.00;;
24325;SDS011;12448;45.532;5.290;2023-05-07T02:21:27;2.65;;;1.30;;
24325;SDS011;12448;45.532;5.290;2023-05-07T02:23:53;1.20;;;1.10;;
24325;SDS011;12448;45.532;5.290;2023-05-07T02:26:19;3.80;;;1.20;;
24325;SDS011;12448;45.532;5.290;2023-05-07T02:28:45;3.45;;;1.13;;
24325;SDS011;12448;45.532;5.290;2023-05-07T02:31:11;2.45;;;1.00;;
24325;SDS011;12448;45.532;5.290;2023-05-07T02:33:36;2.42;;;0.98;;
24325;SDS011;12448;45.532;5.290;2023-05-07T02:36:06;3.15;;;1.20;;
24325;SDS011;12448;45.532;5.290;2023-05-07T02:38:32;2.28;;;0.90;;
24325;SDS011;12448;45.532;5.290;2023-05-07T02:40:59;3.42;;;1.10;;
24325;SDS011;12448;45.532;5.290;2023-05-07T02:43:24;3.65;;;1.10;;
24325;SDS011;12448;45.532;5.290;2023-05-07T02:45:59;2.72;;;1.25;;
24325;SDS011;12448;45.532;5.290;2023-05-07T02:48:28;2.88;;;1.23;;
24325;SDS011;12448;45.532;5.290;2023-05-07T02:50:56;2.72;;;1.10;;
24325;SDS011;12448;45.532;5.290;2023-05-07T02:53:28;2.63;;;1.13;;
24325;SDS011;12448;45.532;5.290;2023-05-07T02:55:57;3.38;;;1.30;;
24325;SDS011;12448;45.532;5.290;2023-05-07T02:58:24;2.97;;;1.10;;
24325;SDS011;12448;45.532;5.290;2023-05-07T03:00:50;2.25;;;1.30;;
24325;SDS011;12448;45.532;5.290;2023-05-07T03:03:16;2.00;;;1.20;;
24325;SDS011;12448;45.532;5.290;2023-05-07T03:05:42;2.25;;;1.42;;
24325;SDS011;12448;45.532;5.290;2023-05-07T03:08:08;1.70;;;1.30;;
24325;SDS011;12448;45.532;5.290;2023-05-07T03:10:34;1.20;;;1.00;;
24325;SDS011;12448;45.532;5.290;2023-05-07T03:13:01;4.22;;;1.63;;
24325;SDS011;12448;45.532;5.290;2023-05-07T03:15:26;2.50;;;1.38;;
24325;SDS011;12448;45.532;5.290;2023-05-07T03:17:52;2.45;;;1.33;;
24325;SDS011;12448;45.532;5.290;2023-05-07T03:20:18;1.23;;;1.08;;
24325;SDS011;12448;45.532;5.290;2023-05-07T03:22:43;1.95;;;1.17;;
24325;SDS011;12448;45.532;5.290;2023-05-07T03:25:09;2.00;;;1.00;;
24325;SDS011;12448;45.532;5.290;2023-05-07T03:27:35;1.67;;;1.10;;
24325;SDS011;12448;45.532;5.290;2023-05-07T03:30:01;1.55;;;1.35;;
24325;SDS011;12448;45.532;5.290;2023-05-07T03:32:27;2.15;;;1.20;;
24325;SDS011;12448;45.532;5.290;2023-05-07T03:34:53;2.53;;;1.38;;
24325;SDS011;12448;45.532;5.290;2023-05-07T03:37:18;1.95;;;1.10;;
24325;SDS011;12448;45.532;5.290;2023-05-07T03:39:44;1.92;;;1.23;;
24325;SDS011;12448;45.532;5.290;2023-05-07T03:42:10;2.85;;;1.38;;
24325;SDS011;12448;45.532;5.290;2023-05-07T03:44:36;3.83;;;1.27;;
24325;SDS011;12448;45.532;5.290;2023-05-07T03:47:02;3.22;;;1.52;;
24325;SDS011;12448;45.532;5.290;2023-05-07T03:49:28;2.92;;;1.40;;
24325;SDS011;12448;45.532;5.290;2023-05-07T03:51:53;1.45;;;1.10;;
24325;SDS011;12448;45.532;5.290;2023-05-07T03:54:19;4.30;;;1.40;;
24325;SDS011;12448;45.532;5.290;2023-05-07T03:56:45;4.40;;;1.20;;
24325;SDS011;12448;45.532;5.290;2023-05-07T03:59:11;2.25;;;1.25;;
24325;SDS011;12448;45.532;5.290;2023-05-07T04:01:38;3.70;;;1.30;;
24325;SDS011;12448;45.532;5.290;2023-05-07T04:04:03;1.25;;;1.13;;
24325;SDS011;12448;45.532;5.290;2023-05-07T04:06:29;2.38;;;1.17;;
24325;SDS011;12448;45.532;5.290;2023-05-07T04:08:56;1.67;;;1.27;;
24325;SDS011;12448;45.532;5.290;2023-05-07T04:11:21;1.20;;;1.05;;
24325;SDS011;12448;45.532;5.290;2023-05-07T04:13:47;5.05;;;1.52;;
24325;SDS011;12448;45.532;5.290;2023-05-07T04:16:12;2.97;;;1.15;;
24325;SDS011;12448;45.532;5.290;2023-05-07T04:18:38;1.50;;;1.23;;
24325;SDS011;12448;45.532;5.290;2023-05-07T04:21:05;3.35;;;1.60;;
24325;SDS011;12448;45.532;5.290;2023-05-07T04:23:30;2.30;;;1.20;;
24325;SDS011;12448;45.532;5.290;2023-05-07T04:25:56;3.67;;;1.30;;
24325;SDS011;12448;45.532;5.290;2023-05-07T04:28:23;1.65;;;1.40;;
24325;SDS011;12448;45.532;5.290;2023-05-07T04:30:49;3.05;;;1.27;;
24325;SDS011;12448;45.532;5.290;2023-05-07T04:33:15;1.73;;;1.30;;
24325;SDS011;12448;45.532;5.290;2023-05-07T04:35:46;1.60;;;1.30;;
24325;SDS011;12448;45.532;5.290;2023-05-07T04:38:12;2.45;;;1.30;;
24325;SDS011;12448;45.532;5.290;2023-05-07T04:40:38;1.70;;;1.35;;
24325;SDS011;12448;45.532;5.290;2023-05-07T04:43:04;2.85;;;1.42;;
24325;SDS011;12448;45.532;5.290;2023-05-07T04:45:29;2.13;;;1.30;;
24325;SDS011;12448;45.532;5.290;2023-05-07T04:47:55;3.72;;;1.25;;
24325;SDS011;12448;45.532;5.290;2023-05-07T04:50:21;1.60;;;1.25;;
24325;SDS011;12448;45.532;5.290;2023-05-07T04:52:49;1.20;;;1.05;;
24325;SDS011;12448;45.532;5.290;2023-05-07T04:55:15;1.63;;;1.20;;
24325;SDS011;12448;45.532;5.290;2023-05-07T04:57:41;4.68;;;1.33;;
24325;SDS011;12448;45.532;5.290;2023-05-07T05:00:07;3.65;;;1.15;;
24325;SDS011;12448;45.532;5.290;2023-05-07T05:02:35;2.53;;;1.42;;
24325;SDS011;12448;45.532;5.290;2023-05-07T05:05:01;2.10;;;1.30;;
24325;SDS011;12448;45.532;5.290;2023-05-07T05:07:27;1.30;;;1.20;;
24325;SDS011;12448;45.532;5.290;2023-05-07T05:09:56;3.00;;;1.42;;
24325;SDS011;12448;45.532;5.290;2023-05-07T05:12:22;3.13;;;1.38;;
24325;SDS011;12448;45.532;5.290;2023-05-07T05:14:48;2.67;;;1.27;;
24325;SDS011;12448;45.532;5.290;2023-05-07T05:17:13;3.38;;;1.38;;
24325;SDS011;12448;45.532;5.290;2023-05-07T05:19:39;2.05;;;1.02;;
24325;SDS011;12448;45.532;5.290;2023-05-07T05:22:05;2.83;;;1.30;;
24325;SDS011;12448;45.532;5.290;2023-05-07T05:24:31;2.95;;;1.30;;
24325;SDS011;12448;45.532;5.290;2023-05-07T05:26:57;2.75;;;1.20;;
24325;SDS011;12448;45.532;5.290;2023-05-07T05:29:24;2.80;;;1.30;;
24325;SDS011;12448;45.532;5.290;2023-05-07T05:31:50;2.45;;;1.35;;
24325;SDS011;12448;45.532;5.290;2023-05-07T05:34:16;2.78;;;1.67;;
24325;SDS011;12448;45.532;5.290;2023-05-07T05:36:44;4.20;;;1.30;;
24325;SDS011;12448;45.532;5.290;2023-05-07T05:39:10;2.10;;;1.10;;
24325;SDS011;12448;45.532;5.290;2023-05-07T05:41:36;4.45;;;1.50;;
24325;SDS011;12448;45.532;5.290;2023-05-07T05:44:01;1.55;;;1.20;;
24325;SDS011;12448;45.532;5.290;2023-05-07T05:46:45;2.65;;;1.10;;
24325;SDS011;12448;45.532;5.290;2023-05-07T05:49:11;4.60;;;1.52;;
24325;SDS011;12448;45.532;5.290;2023-05-07T05:51:37;2.78;;;1.20;;
24325;SDS011;12448;45.532;5.290;2023-05-07T05:54:02;2.03;;;1.20;;
24325;SDS011;12448;45.532;5.290;2023-05-07T05:56:28;2.00;;;1.30;;
24325;SDS011;12448;45.532;5.290;2023-05-07T05:59:03;2.47;;;1.40;;
24325;SDS011;12448;45.532;5.290;2023-05-07T06:01:29;2.65;;;1.13;;
24325;SDS011;12448;45.532;5.290;2023-05-07T06:03:54;1.42;;;1.30;;
24325;SDS011;12448;45.532;5.290;2023-05-07T06:06:24;2.13;;;1.20;;
24325;SDS011;12448;45.532;5.290;2023-05-07T06:09:11;1.40;;;1.10;;
24325;SDS011;12448;45.532;5.290;2023-05-07T06:12:22;2.33;;;1.35;;
24325;SDS011;12448;45.532;5.290;2023-05-07T06:14:26;1.45;;;1.00;;
24325;SDS011;12448;45.532;5.290;2023-05-07T06:16:51;3.03;;;1.20;;
24325;SDS011;12448;45.532;5.290;2023-05-07T06:19:17;1.45;;;1.20;;
24325;SDS011;12448;45.532;5.290;2023-05-07T06:22:14;2.42;;;1.08;;
24325;SDS011;12448;45.532;5.290;2023-05-07T06:27:56;1.90;;;1.27;;
24325;SDS011;12448;45.532;5.290;2023-05-07T06:30:24;3.00;;;1.60;;
24325;SDS011;12448;45.532;5.290;2023-05-07T06:32:51;2.75;;;1.30;;
24325;SDS011;12448;45.532;5.290;2023-05-07T06:35:17;1.92;;;1.27;;
24325;SDS011;12448;45.532;5.290;2023-05-07T06:37:48;1.85;;;1.27;;
24325;SDS011;12448;45.532;5.290;2023-05-07T06:40:14;1.65;;;1.17;;
24325;SDS011;12448;45.532;5.290;2023-05-07T06:42:40;1.98;;;1.20;;
24325;SDS011;12448;45.532;5.290;2023-05-07T06:45:06;2.42;;;1.25;;
24325;SDS011;12448;45.532;5.290;2023-05-07T06:47:42;1.50;;;1.10;;
24325;SDS011;12448;45.532;5.290;2023-05-07T06:50:23;2.17;;;1.27;;
24325;SDS011;12448;45.532;5.290;2023-05-07T06:52:55;3.30;;;1.30;;
24325;SDS011;12448;45.532;5.290;2023-05-07T06:55:57;4.10;;;1.20;;
24325;SDS011;12448;45.532;5.290;2023-05-07T06:58:22;1.20;;;1.10;;
24325;SDS011;12448;45.532;5.290;2023-05-07T07:01:16;1.10;;;1.00;;
24325;SDS011;12448;45.532;5.290;2023-05-07T07:03:43;2.25;;;1.30;;
24325;SDS011;12448;45.532;5.290;2023-05-07T07:06:25;5.05;;;1.40;;
24325;SDS011;12448;45.532;5.290;2023-05-07T07:08:51;3.17;;;1.30;;
24325;SDS011;12448;45.532;5.290;2023-05-07T07:11:16;2.28;;;1.13;;
24325;SDS011;12448;45.532;5.290;2023-05-07T07:13:42;2.50;;;1.25;;
24325;SDS011;12448;45.532;5.290;2023-05-07T07:16:08;1.30;;;1.10;;
24325;SDS011;12448;45.532;5.290;2023-05-07T07:18:33;3.65;;;1.20;;
24325;SDS011;12448;45.532;5.290;2023-05-07T07:21:00;2.15;;;1.10;;
24325;SDS011;12448;45.532;5.290;2023-05-07T07:23:25;2.28;;;1.38;;
24325;SDS011;12448;45.532;5.290;2023-05-07T07:26:24;2.17;;;1.00;;
24325;SDS011;12448;45.532;5.290;2023-05-07T07:29:04;2.92;;;1.10;;
24325;SDS011;12448;45.532;5.290;2023-05-07T07:32:13;2.88;;;1.33;;
24325;SDS011;12448;45.532;5.290;2023-05-07T07:34:39;4.27;;;1.40;;
24325;SDS011;12448;45.532;5.290;2023-05-07T07:37:05;1.83;;;1.33;;
24325;SDS011;12448;45.532;5.290;2023-05-07T07:39:33;5.78;;;1.27;;
24325;SDS011;12448;45.532;5.290;2023-05-07T07:42:00;4.50;;;1.35;;
24325;SDS011;12448;45.532;5.290;2023-05-07T07:44:27;2.03;;;1.40;;
24325;SDS011;12448;45.532;5.290;2023-05-07T07:46:56;3.67;;;1.30;;
24325;SDS011;12448;45.532;5.290;2023-05-07T07:49:25;4.53;;;1.10;;
24325;SDS011;12448;45.532;5.290;2023-05-07T07:51:51;1.77;;;1.10;;
24325;SDS011;12448;45.532;5.290;2023-05-07T07:54:42;3.13;;;1.58;;
24325;SDS011;12448;45.532;5.290;2023-05-07T07:57:20;2.17;;;1.35;;
24325;SDS011;12448;45.532;5.290;2023-05-07T07:59:46;3.17;;;1.40;;
24325;SDS011;12448;45.532;5.290;2023-05-07T08:02:11;3.33;;;1.50;;
24325;SDS011;12448;45.532;5.290;2023-05-07T08:04:37;4.65;;;1.65;;
24325;SDS011;12448;45.532;5.290;2023-05-07T08:07:03;3.53;;;1.75;;
24325;SDS011;12448;45.532;5.290;2023-05-07T08:09:29;3.38;;;1.60;;
24325;SDS011;12448;45.532;5.290;2023-05-07T08:11:54;5.00;;;1.70;;
24325;SDS011;12448;45.532;5.290;2023-05-07T08:14:20;3.53;;;1.58;;
24325;SDS011;12448;45.532;5.290;2023-05-07T08:19:22;4.20;;;1.50;;
24325;SDS011;12448;45.532;5.290;2023-05-07T08:22:20;1.60;;;1.50;;
24325;SDS011;12448;45.532;5.290;2023-05-07T08:24:53;4.13;;;1.85;;
24325;SDS011;12448;45.532;5.290;2023-05-07T08:27:57;4.88;;;1.80;;
24325;SDS011;12448;45.532;5.290;2023-05-07T08:30:22;5.50;;;1.70;;
24325;SDS011;12448;45.532;5.290;2023-05-07T08:32:48;4.15;;;1.58;;
24325;SDS011;12448;45.532;5.290;2023-05-07T08:35:17;4.53;;;1.70;;
24325;SDS011;12448;45.532;5.290;2023-05-07T08:37:42;4.10;;;1.70;;
24325;SDS011;12448;45.532;5.290;2023-05-07T08:40:09;4.78;;;1.80;;
24325;SDS011;12448;45.532;5.290;2023-05-07T08:42:37;2.83;;;2.10;;
24325;SDS011;12448;45.532;5.290;2023-05-07T08:45:08;3.63;;;1.60;;
24325;SDS011;12448;45.532;5.290;2023-05-07T08:47:46;6.68;;;1.83;;
24325;SDS011;12448;45.532;5.290;2023-05-07T08:50:21;2.42;;;2.03;;
24325;SDS011;12448;45.532;5.290;2023-05-07T08:52:47;3.85;;;1.73;;
24325;SDS011;12448;45.532;5.290;2023-05-07T08:55:14;4.40;;;1.85;;
24325;SDS011;12448;45.532;5.290;2023-05-07T08:57:40;4.72;;;2.13;;
24325;SDS011;12448;45.532;5.290;2023-05-07T09:00:06;2.88;;;1.70;;
24325;SDS011;12448;45.532;5.290;2023-05-07T09:02:32;7.25;;;2.33;;
24325;SDS011;12448;45.532;5.290;2023-05-07T09:04:59;5.60;;;2.10;;
24325;SDS011;12448;45.532;5.290;2023-05-07T09:07:25;4.70;;;1.95;;
24325;SDS011;12448;45.532;5.290;2023-05-07T09:09:51;1.90;;;1.75;;
24325;SDS011;12448;45.532;5.290;2023-05-07T09:12:18;4.40;;;2.10;;
24325;SDS011;12448;45.532;5.290;2023-05-07T09:14:45;4.22;;;1.73;;
24325;SDS011;12448;45.532;5.290;2023-05-07T09:17:12;3.97;;;1.80;;
24325;SDS011;12448;45.532;5.290;2023-05-07T09:19:49;4.50;;;1.60;;
24325;SDS011;12448;45.532;5.290;2023-05-07T09:22:15;2.60;;;1.55;;
24325;SDS011;12448;45.532;5.290;2023-05-07T09:24:46;2.92;;;1.55;;
24325;SDS011;12448;45.532;5.290;2023-05-07T09:27:16;2.33;;;1.50;;
24325;SDS011;12448;45.532;5.290;2023-05-07T09:29:43;1.55;;;1.35;;
24325;SDS011;12448;45.532;5.290;2023-05-07T09:32:10;1.70;;;1.30;;
24325;SDS011;12448;45.532;5.290;2023-05-07T09:34:35;2.78;;;1.45;;
24325;SDS011;12448;45.532;5.290;2023-05-07T09:37:01;2.10;;;1.35;;
24325;SDS011;12448;45.532;5.290;2023-05-07T09:42:09;2.35;;;1.55;;
24325;SDS011;12448;45.532;5.290;2023-05-07T09:44:36;4.35;;;1.88;;
24325;SDS011;12448;45.532;5.290;2023-05-07T09:47:04;1.65;;;1.48;;
24325;SDS011;12448;45.532;5.290;2023-05-07T09:49:30;3.33;;;2.03;;
24325;SDS011;12448;45.532;5.290;2023-05-07T09:52:00;4.40;;;1.73;;
24325;SDS011;12448;45.532;5.290;2023-05-07T09:54:27;2.70;;;1.73;;
24325;SDS011;12448;45.532;5.290;2023-05-07T09:56:56;4.00;;;2.10;;
24325;SDS011;12448;45.532;5.290;2023-05-07T09:59:23;2.03;;;1.60;;
24325;SDS011;12448;45.532;5.290;2023-05-07T10:01:50;4.78;;;2.00;;
24325;SDS011;12448;45.532;5.290;2023-05-07T10:04:18;2.20;;;2.00;;
24325;SDS011;12448;45.532;5.290;2023-05-07T10:06:45;5.78;;;2.47;;
24325;SDS011;12448;45.532;5.290;2023-05-07T10:09:11;11.07;;;2.63;;
24325;SDS011;12448;45.532;5.290;2023-05-07T10:11:38;3.70;;;2.33;;
24325;SDS011;12448;45.532;5.290;2023-05-07T10:14:05;6.00;;;2.50;;
24325;SDS011;12448;45.532;5.290;2023-05-07T10:16:40;6.35;;;2.40;;
24325;SDS011;12448;45.532;5.290;2023-05-07T10:19:07;4.45;;;2.30;;
24325;SDS011;12448;45.532;5.290;2023-05-07T10:21:35;5.57;;;2.50;;
24325;SDS011;12448;45.532;5.290;2023-05-07T10:24:09;3.88;;;2.22;;
24325;SDS011;12448;45.532;5.290;2023-05-07T10:26:39;3.08;;;2.22;;
24325;SDS011;12448;45.532;5.290;2023-05-07T10:29:29;4.75;;;2.55;;
24325;SDS011;12448;45.532;5.290;2023-05-07T10:31:59;3.35;;;2.50;;
24325;SDS011;12448;45.532;5.290;2023-05-07T10:34:50;4.55;;;2.95;;
24325;SDS011;12448;45.532;5.290;2023-05-07T10:37:20;3.00;;;2.70;;
24325;SDS011;12448;45.532;5.290;2023-05-07T10:39:46;6.35;;;2.83;;
24325;SDS011;12448;45.532;5.290;2023-05-07T10:42:12;4.28;;;2.42;;
24325;SDS011;12448;45.532;5.290;2023-05-07T10:44:39;3.97;;;2.67;;
24325;SDS011;12448;45.532;5.290;2023-05-07T10:47:09;4.78;;;2.50;;
24325;SDS011;12448;45.532;5.290;2023-05-07T10:55:38;4.20;;;2.35;;
24325;SDS011;12448;45.532;5.290;2023-05-07T11:05:18;3.58;;;2.25;;
24325;SDS011;12448;45.532;5.290;2023-05-07T11:08:10;4.32;;;2.70;;
24325;SDS011;12448;45.532;5.290;2023-05-07T11:10:52;5.13;;;2.00;;
24325;SDS011;12448;45.532;5.290;2023-05-07T11:16:21;3.92;;;2.65;;
24325;SDS011;12448;45.532;5.290;2023-05-07T11:18:55;4.35;;;2.53;;
24325;SDS011;12448;45.532;5.290;2023-05-07T11:21:37;3.42;;;2.72;;
24325;SDS011;12448;45.532;5.290;2023-05-07T11:24:04;4.95;;;2.40;;
24325;SDS011;12448;45.532;5.290;2023-05-07T11:26:41;3.78;;;2.42;;
24325;SDS011;12448;45.532;5.290;2023-05-07T11:29:10;6.88;;;2.65;;
24325;SDS011;12448;45.532;5.290;2023-05-07T11:31:50;5.40;;;2.50;;
24325;SDS011;12448;45.532;5.290;2023-05-07T11:34:20;3.58;;;2.60;;
24325;SDS011;12448;45.532;5.290;2023-05-07T11:36:50;4.82;;;2.90;;
24325;SDS011;12448;45.532;5.290;2023-05-07T11:39:26;4.20;;;2.80;;
24325;SDS011;12448;45.532;5.290;2023-05-07T11:41:52;4.35;;;2.80;;
24325;SDS011;12448;45.532;5.290;2023-05-07T11:44:18;4.47;;;3.03;;
24325;SDS011;12448;45.532;5.290;2023-05-07T11:46:44;4.97;;;2.72;;
24325;SDS011;12448;45.532;5.290;2023-05-07T11:49:12;7.25;;;2.63;;
24325;SDS011;12448;45.532;5.290;2023-05-07T11:51:38;3.70;;;2.53;;
24325;SDS011;12448;45.532;5.290;2023-05-07T11:54:17;4.30;;;2.42;;
24325;SDS011;12448;45.532;5.290;2023-05-07T11:56:43;4.30;;;2.30;;
24325;SDS011;12448;45.532;5.290;2023-05-07T11:59:10;3.35;;;2.40;;
24325;SDS011;12448;45.532;5.290;2023-05-07T12:01:35;3.80;;;2.30;;
24325;SDS011;12448;45.532;5.290;2023-05-07T12:04:02;2.67;;;2.20;;
24325;SDS011;12448;45.532;5.290;2023-05-07T12:06:29;5.15;;;3.20;;
24325;SDS011;12448;45.532;5.290;2023-05-07T12:08:55;5.88;;;3.13;;
24325;SDS011;12448;45.532;5.290;2023-05-07T12:11:24;2.90;;;2.40;;
24325;SDS011;12448;45.532;5.290;2023-05-07T12:13:51;4.03;;;2.53;;
24325;SDS011;12448;45.532;5.290;2023-05-07T12:16:19;4.88;;;2.63;;
24325;SDS011;12448;45.532;5.290;2023-05-07T12:18:49;5.43;;;2.65;;
24325;SDS011;12448;45.532;5.290;2023-05-07T12:21:17;3.50;;;2.60;;
24325;SDS011;12448;45.532;5.290;2023-05-07T12:23:46;4.38;;;2.35;;
24325;SDS011;12448;45.532;5.290;2023-05-07T12:26:15;3.60;;;1.90;;
24325;SDS011;12448;45.532;5.290;2023-05-07T12:28:41;3.63;;;2.40;;
24325;SDS011;12448;45.532;5.290;2023-05-07T12:31:07;1.55;;;1.38;;
24325;SDS011;12448;45.532;5.290;2023-05-07T12:33:33;2.60;;;1.88;;
24325;SDS011;12448;45.532;5.290;2023-05-07T12:36:02;4.38;;;1.90;;
24325;SDS011;12448;45.532;5.290;2023-05-07T12:38:35;2.22;;;1.73;;
24325;SDS011;12448;45.532;5.290;2023-05-07T12:41:06;2.83;;;1.70;;
24325;SDS011;12448;45.532;5.290;2023-05-07T12:43:34;2.03;;;1.80;;
24325;SDS011;12448;45.532;5.290;2023-05-07T12:46:00;6.15;;;2.03;;
24325;SDS011;12448;45.532;5.290;2023-05-07T12:48:29;5.97;;;2.28;;
24325;SDS011;12448;45.532;5.290;2023-05-07T12:50:56;1.60;;;1.50;;
24325;SDS011;12448;45.532;5.290;2023-05-07T12:53:23;2.97;;;1.98;;
24325;SDS011;12448;45.532;5.290;2023-05-07T12:55:51;2.60;;;1.88;;
24325;SDS011;12448;45.532;5.290;2023-05-07T12:58:19;3.83;;;1.90;;
24325;SDS011;12448;45.532;5.290;2023-05-07T13:00:45;2.35;;;1.60;;
24325;SDS011;12448;45.532;5.290;2023-05-07T13:03:17;2.88;;;2.00;;
24325;SDS011;12448;45.532;5.290;2023-05-07T13:06:06;5.05;;;2.20;;
24325;SDS011;12448;45.532;5.290;2023-05-07T13:08:40;3.75;;;2.20;;
24325;SDS011;12448;45.532;5.290;2023-05-07T13:11:10;3.53;;;2.33;;
24325;SDS011;12448;45.532;5.290;2023-05-07T13:13:36;3.58;;;2.80;;
24325;SDS011;12448;45.532;5.290;2023-05-07T13:16:04;3.63;;;2.45;;
24325;SDS011;12448;45.532;5.290;2023-05-07T13:18:31;2.47;;;2.03;;
24325;SDS011;12448;45.532;5.290;2023-05-07T13:20:58;2.92;;;2.20;;
24325;SDS011;12448;45.532;5.290;2023-05-07T13:23:24;3.65;;;1.95;;
24325;SDS011;12448;45.532;5.290;2023-05-07T13:25:50;2.97;;;2.10;;
24325;SDS011;12448;45.532;5.290;2023-05-07T13:28:16;3.58;;;2.15;;
24325;SDS011;12448;45.532;5.290;2023-05-07T13:30:41;3.45;;;2.20;;
24325;SDS011;12448;45.532;5.290;2023-05-07T13:33:07;3.40;;;2.42;;
24325;SDS011;12448;45.532;5.290;2023-05-07T13:35:34;2.85;;;2.20;;
24325;SDS011;12448;45.532;5.290;2023-05-07T13:38:00;3.75;;;2.67;;
24325;SDS011;12448;45.532;5.290;2023-05-07T13:40:25;2.55;;;2.03;;
24325;SDS011;12448;45.532;5.290;2023-05-07T13:42:51;3.75;;;1.98;;
24325;SDS011;12448;45.532;5.290;2023-05-07T13:45:18;2.58;;;2.20;;
24325;SDS011;12448;45.532;5.290;2023-05-07T13:47:44;3.35;;;2.20;;
24325;SDS011;12448;45.532;5.290;2023-05-07T13:50:10;2.67;;;1.98;;
24325;SDS011;12448;45.532;5.290;2023-05-07T13:52:38;2.92;;;2.10;;
24325;SDS011;12448;45.532;5.290;2023-05-07T13:55:06;3.03;;;2.20;;
24325;SDS011;12448;45.532;5.290;2023-05-07T13:57:32;3.60;;;2.13;;
24325;SDS011;12448;45.532;5.290;2023-05-07T13:59:57;6.13;;;2.35;;
24325;SDS011;12448;45.532;5.290;2023-05-07T14:02:23;3.90;;;1.98;;
24325;SDS011;12448;45.532;5.290;2023-05-07T14:04:49;3.88;;;2.47;;
24325;SDS011;12448;45.532;5.290;2023-05-07T14:07:14;4.55;;;2.45;;
24325;SDS011;12448;45.532;5.290;2023-05-07T14:09:40;5.82;;;2.92;;
24325;SDS011;12448;45.532;5.290;2023-05-07T14:12:06;2.72;;;2.35;;
24325;SDS011;12448;45.532;5.290;2023-05-07T14:14:32;2.78;;;2.58;;
24325;SDS011;12448;45.532;5.290;2023-05-07T14:16:57;4.50;;;2.45;;
24325;SDS011;12448;45.532;5.290;2023-05-07T14:19:23;3.35;;;2.50;;
24325;SDS011;12448;45.532;5.290;2023-05-07T14:21:49;5.43;;;2.63;;
24325;SDS011;12448;45.532;5.290;2023-05-07T14:24:14;5.28;;;2.67;;
24325;SDS011;12448;45.532;5.290;2023-05-07T14:26:40;2.30;;;1.80;;
24325;SDS011;12448;45.532;5.290;2023-05-07T14:29:06;3.50;;;1.77;;
24325;SDS011;12448;45.532;5.290;2023-05-07T14:31:32;3.03;;;1.70;;
24325;SDS011;12448;45.532;5.290;2023-05-07T14:33:58;3.90;;;1.77;;
24325;SDS011;12448;45.532;5.290;2023-05-07T14:36:24;2.67;;;1.60;;
24325;SDS011;12448;45.532;5.290;2023-05-07T14:38:55;3.00;;;1.85;;
24325;SDS011;12448;45.532;5.290;2023-05-07T14:41:22;3.17;;;1.73;;
24325;SDS011;12448;45.532;5.290;2023-05-07T14:43:47;2.97;;;1.63;;
24325;SDS011;12448;45.532;5.290;2023-05-07T14:46:17;3.75;;;1.70;;
24325;SDS011;12448;45.532;5.290;2023-05-07T14:48:44;2.50;;;1.50;;
24325;SDS011;12448;45.532;5.290;2023-05-07T14:51:10;4.47;;;1.70;;
24325;SDS011;12448;45.532;5.290;2023-05-07T14:53:36;2.55;;;1.58;;
24325;SDS011;12448;45.532;5.290;2023-05-07T14:56:02;2.20;;;1.70;;
24325;SDS011;12448;45.532;5.290;2023-05-07T14:58:28;2.65;;;1.70;;
24325;SDS011;12448;45.532;5.290;2023-05-07T15:00:54;2.63;;;1.27;;
24325;SDS011;12448;45.532;5.290;2023-05-07T15:03:20;1.33;;;1.17;;
24325;SDS011;12448;45.532;5.290;2023-05-07T15:05:46;7.60;;;2.47;;
24325;SDS011;12448;45.532;5.290;2023-05-07T15:08:12;4.72;;;3.13;;
24325;SDS011;12448;45.532;5.290;2023-05-07T15:10:38;2.08;;;1.45;;
24325;SDS011;12448;45.532;5.290;2023-05-07T15:13:05;1.60;;;1.15;;
24325;SDS011;12448;45.532;5.290;2023-05-07T15:15:32;2.85;;;1.40;;
24325;SDS011;12448;45.532;5.290;2023-05-07T15:17:58;1.95;;;1.40;;
24325;SDS011;12448;45.532;5.290;2023-05-07T15:20:26;2.38;;;1.10;;